Terminal Aerodrome Forecast
Issued by NWS

Home | Current Version | Previous Version | Text Only | Print | Product List | Glossary On
Versions: 1 2 3 4 5 6 7 8 9 10 11 12 13 14 15 16 17
611
FTUS44 KLZK 042320
TAFBPK
TAF
KBPK 042320Z 0500/0524 VRB05KT P6SM OVC020
      TEMPO 0502/0506 SCT020
     FM050600 VRB03KT 5SM BR SCT250
      TEMPO 0509/0513 1/2SM FG OVC001
     FM051400 11003KT P6SM SCT005 BKN250
     FM051800 13008KT P6SM VCSH SCT025 OVC050 PROB30 0518/0524 5SM
      -RA BR BKN025=

USA.gov is the U.S. government's official web portal to all federal, state and local government web resources and services.